Time;durP1;ratioP1;P1;durP2;ratioP2;P2;SDS_P1;SDS_P2;PMS_P1;PMS_P2;Temp;Humidity;BMP_temperature;BMP_pressure;BME280_temperature;BME280_humidity;BME280_pressure;Samples;Min_cycle;Max_cycle;Signal;HPM_P1;HPM_P2
2022/06/22 00:01:23;;;;;;;4.80;4.50;;;;;;;;;;5067675;28;24862;-46
2022/06/22 00:03:51;;;;;;;4.70;4.40;;;;;;;;;;5064650;28;24424;-46
2022/06/22 00:06:42;;;;;;;4.68;4.38;;;;;;;;;;5075101;28;24770;-47
2022/06/22 00:09:19;;;;;;;4.55;4.15;;;;;;;;;;5071976;28;25029;-47
2022/06/22 00:11:44;;;;;;;5.60;5.10;;;;;;;;;;5088467;28;24437;-46
2022/06/22 00:14:15;;;;;;;4.60;4.30;;;;;;;;;;5075272;28;24441;-46
2022/06/22 00:16:47;;;;;;;5.10;4.73;;;;;;;;;;5068414;28;24502;-46
2022/06/22 00:19:28;;;;;;;5.18;4.80;;;;;;;;;;5078617;28;24793;-46
2022/06/22 00:21:54;;;;;;;5.43;4.90;;;;;;;;;;5080013;28;24542;-47
2022/06/22 00:24:21;;;;;;;5.80;5.40;;;;;;;;;;5066162;28;24522;-47
2022/06/22 00:26:48;;;;;;;5.20;4.80;;;;;;;;;;5073051;28;24426;-48
2022/06/22 00:29:13;;;;;;;4.65;4.35;;;;;;;;;;5064749;28;24521;-48
2022/06/22 00:31:47;;;;;;;5.32;4.93;;;;;;;;;;5069594;28;24514;-47
2022/06/22 00:34:14;;;;;;;5.60;5.20;;;;;;;;;;5084193;28;24785;-47
2022/06/22 00:36:42;;;;;;;4.70;4.40;;;;;;;;;;5076833;28;24914;-47
2022/06/22 00:39:22;;;;;;;4.70;4.40;;;;;;;;;;5069212;28;24419;-47
2022/06/22 00:41:50;;;;;;;4.68;4.38;;;;;;;;;;5070991;28;24437;-47
2022/06/22 00:44:16;;;;;;;4.80;4.40;;;;;;;;;;5061375;28;24478;-47
2022/06/22 00:46:44;;;;;;;4.50;4.20;;;;;;;;;;5078359;28;24450;-47
2022/06/22 00:49:13;;;;;;;4.40;4.10;;;;;;;;;;5074481;28;25273;-48
2022/06/22 00:51:39;;;;;;;4.90;4.60;;;;;;;;;;5078534;28;24943;-47
2022/06/22 00:54:06;;;;;;;4.90;4.50;;;;;;;;;;5068013;28;24429;-48
2022/06/22 00:56:40;;;;;;;5.07;4.68;;;;;;;;;;5073864;28;24437;-48
2022/06/22 00:59:13;;;;;;;4.80;4.40;;;;;;;;;;5069524;28;24487;-47
2022/06/22 01:01:44;;;;;;;4.95;4.63;;;;;;;;;;5060774;28;25418;-48
2022/06/22 01:04:25;;;;;;;5.50;5.00;;;;;;;;;;5065436;28;24524;-48
2022/06/22 01:06:57;;;;;;;5.00;4.70;;;;;;;;;;5058100;28;25209;-49
2022/06/22 01:09:31;;;;;;;4.70;4.40;;;;;;;;;;5070202;28;24487;-47
2022/06/22 01:12:18;;;;;;;4.63;4.28;;;;;;;;;;5070625;28;24517;-48
2022/06/22 01:14:46;;;;;;;4.75;4.35;;;;;;;;;;5077825;28;24803;-48
2022/06/22 01:17:13;;;;;;;4.40;4.10;;;;;;;;;;5064764;28;24725;-47
2022/06/22 01:19:47;;;;;;;5.00;4.70;;;;;;;;;;5078873;28;24457;-47
2022/06/22 01:22:31;;;;;;;4.50;4.10;;;;;;;;;;5063940;28;24429;-47
2022/06/22 01:25:04;;;;;;;4.90;4.50;;;;;;;;;;5053599;28;24503;-47
2022/06/22 01:27:32;;;;;;;5.15;4.47;;;;;;;;;;5069914;28;24419;-48
2022/06/22 01:30:00;;;;;;;4.90;4.50;;;;;;;;;;5066208;28;24423;-47
2022/06/22 01:32:27;;;;;;;5.15;4.75;;;;;;;;;;5064932;28;26097;-47
2022/06/22 01:34:55;;;;;;;4.70;4.40;;;;;;;;;;5071210;28;24965;-47
2022/06/22 01:37:22;;;;;;;4.45;4.15;;;;;;;;;;5068935;28;24500;-47
2022/06/22 01:39:47;;;;;;;4.60;4.40;;;;;;;;;;5070690;28;24457;-47
2022/06/22 01:42:21;;;;;;;4.80;4.50;;;;;;;;;;5073675;28;24995;-47
2022/06/22 01:44:58;;;;;;;4.50;4.20;;;;;;;;;;5062120;28;24441;-47
2022/06/22 01:47:36;;;;;;;4.88;4.47;;;;;;;;;;5065480;28;24514;-47
2022/06/22 01:50:01;;;;;;;4.63;4.32;;;;;;;;;;5060530;28;24442;-47
2022/06/22 01:52:35;;;;;;;4.30;4.00;;;;;;;;;;5077225;28;24499;-47
2022/06/22 01:55:04;;;;;;;4.90;4.50;;;;;;;;;;5073198;28;24533;-47
2022/06/22 01:57:41;;;;;;;4.60;4.20;;;;;;;;;;5065280;28;24587;-46
2022/06/22 02:00:07;;;;;;;5.00;4.60;;;;;;;;;;5066644;28;24462;-48
2022/06/22 02:02:50;;;;;;;4.50;4.20;;;;;;;;;;5070711;28;24512;-46
2022/06/22 02:05:34;;;;;;;4.57;4.28;;;;;;;;;;5080016;28;24484;-46
2022/06/22 02:08:08;;;;;;;4.60;4.30;;;;;;;;;;5074698;28;24479;-46
2022/06/22 02:10:39;;;;;;;4.70;4.30;;;;;;;;;;5069019;28;24439;-46
2022/06/22 02:13:04;;;;;;;5.45;5.05;;;;;;;;;;5076537;28;24503;-46
2022/06/22 02:15:29;;;;;;;4.55;4.15;;;;;;;;;;5071299;28;24506;-47
2022/06/22 02:17:54;;;;;;;4.70;4.40;;;;;;;;;;5067669;28;24511;-47
2022/06/22 02:20:29;;;;;;;4.50;4.10;;;;;;;;;;5063696;28;24525;-47
2022/06/22 02:22:56;;;;;;;4.80;4.50;;;;;;;;;;5069886;28;24789;-47
2022/06/22 02:25:23;;;;;;;5.05;4.65;;;;;;;;;;5074733;28;24453;-47
2022/06/22 02:27:48;;;;;;;4.90;4.50;;;;;;;;;;5074845;28;25049;-47
2022/06/22 02:30:13;;;;;;;4.75;4.45;;;;;;;;;;5068755;28;24442;-47
2022/06/22 02:32:40;;;;;;;4.00;3.70;;;;;;;;;;5075143;28;25777;-46
2022/06/22 02:35:06;;;;;;;4.50;4.20;;;;;;;;;;5064266;28;24475;-48
2022/06/22 02:37:33;;;;;;;4.90;4.50;;;;;;;;;;5079699;28;24415;-48
2022/06/22 02:40:03;;;;;;;4.30;4.00;;;;;;;;;;5064211;28;24467;-48
2022/06/22 02:45:12;;;;;;;5.18;4.60;;;;;;;;;;5062071;28;24519;-47
2022/06/22 02:48:01;;;;;;;4.60;4.30;;;;;;;;;;5075694;28;24467;-47
2022/06/22 02:50:43;;;;;;;5.18;4.68;;;;;;;;;;5068086;28;24438;-47
2022/06/22 02:53:24;;;;;;;4.53;4.13;;;;;;;;;;5066501;28;24556;-46
2022/06/22 02:55:50;;;;;;;4.50;4.20;;;;;;;;;;5063267;28;24421;-48
2022/06/22 02:58:30;;;;;;;5.10;4.60;;;;;;;;;;5082164;28;24423;-47
2022/06/22 03:00:57;;;;;;;4.00;3.80;;;;;;;;;;5059669;28;24886;-46
2022/06/22 03:03:23;;;;;;;5.10;4.70;;;;;;;;;;5065110;28;24426;-46
2022/06/22 03:05:51;;;;;;;4.37;4.07;;;;;;;;;;5083171;28;24491;-47
2022/06/22 03:08:18;;;;;;;4.35;4.05;;;;;;;;;;5070823;28;24827;-46
2022/06/22 03:10:43;;;;;;;4.78;4.40;;;;;;;;;;5072007;28;24441;-47
2022/06/22 03:13:10;;;;;;;4.80;4.40;;;;;;;;;;5081192;28;24513;-45
2022/06/22 03:15:36;;;;;;;4.43;4.13;;;;;;;;;;5066257;28;24425;-47
2022/06/22 03:18:01;;;;;;;4.40;4.10;;;;;;;;;;5069793;28;24482;-47
2022/06/22 03:20:30;;;;;;;4.70;4.30;;;;;;;;;;5076072;28;25132;-47
2022/06/22 03:22:58;;;;;;;4.72;4.43;;;;;;;;;;5075109;28;24955;-47
2022/06/22 03:25:26;;;;;;;4.68;4.28;;;;;;;;;;5069932;28;24435;-47
2022/06/22 03:27:53;;;;;;;4.35;4.03;;;;;;;;;;5064943;28;24480;-48
2022/06/22 03:30:20;;;;;;;4.20;3.90;;;;;;;;;;5063316;28;25117;-47
2022/06/22 03:32:51;;;;;;;4.00;3.60;;;;;;;;;;5072923;28;24414;-48
2022/06/22 03:35:23;;;;;;;4.20;3.80;;;;;;;;;;5072559;28;25227;-47
2022/06/22 03:37:51;;;;;;;4.60;4.30;;;;;;;;;;5069784;28;24480;-48
2022/06/22 03:40:23;;;;;;;5.40;4.90;;;;;;;;;;5064979;28;24781;-48
2022/06/22 03:42:50;;;;;;;4.18;3.88;;;;;;;;;;5069433;28;24430;-48
2022/06/22 03:45:21;;;;;;;3.97;3.58;;;;;;;;;;5064500;28;24454;-47
2022/06/22 03:47:49;;;;;;;4.32;4.03;;;;;;;;;;5067946;28;24518;-46
2022/06/22 03:50:20;;;;;;;4.05;3.75;;;;;;;;;;5064453;28;24994;-46
2022/06/22 03:52:51;;;;;;;4.40;4.00;;;;;;;;;;5077227;28;24956;-47
2022/06/22 03:55:19;;;;;;;4.63;4.22;;;;;;;;;;5073501;28;24514;-47
2022/06/22 03:57:49;;;;;;;3.80;3.60;;;;;;;;;;5071082;28;24778;-47
2022/06/22 04:00:14;;;;;;;4.17;3.87;;;;;;;;;;5062146;28;24526;-47
2022/06/22 04:02:40;;;;;;;3.80;3.60;;;;;;;;;;5079335;28;24518;-48
2022/06/22 04:05:05;;;;;;;3.80;3.50;;;;;;;;;;5073021;28;24414;-47
2022/06/22 04:07:33;;;;;;;5.20;4.57;;;;;;;;;;5075667;28;24998;-47
2022/06/22 04:09:58;;;;;;;4.20;3.90;;;;;;;;;;5075202;28;24789;-47
2022/06/22 04:12:39;;;;;;;3.88;3.67;;;;;;;;;;5063807;28;24987;-47
2022/06/22 04:15:13;;;;;;;3.75;3.45;;;;;;;;;;5070247;28;24419;-46
2022/06/22 04:17:46;;;;;;;3.80;3.50;;;;;;;;;;5058837;28;26384;-46
2022/06/22 04:20:18;;;;;;;4.10;3.80;;;;;;;;;;5060995;28;24427;-47
2022/06/22 04:22:46;;;;;;;3.90;3.60;;;;;;;;;;5064009;28;24464;-47
2022/06/22 04:25:15;;;;;;;3.42;3.22;;;;;;;;;;5061811;28;24525;-47
2022/06/22 04:27:42;;;;;;;3.70;3.40;;;;;;;;;;5058860;28;24815;-46
2022/06/22 04:30:21;;;;;;;3.45;3.15;;;;;;;;;;5061877;28;24453;-47
2022/06/22 04:32:54;;;;;;;3.65;3.45;;;;;;;;;;5060702;28;24426;-47
2022/06/22 04:35:37;;;;;;;3.67;3.47;;;;;;;;;;5063207;28;24455;-47
2022/06/22 04:38:11;;;;;;;4.18;3.72;;;;;;;;;;5060728;28;24449;-47
2022/06/22 04:40:48;;;;;;;3.40;3.20;;;;;;;;;;5065656;28;24430;-47
2022/06/22 04:43:14;;;;;;;4.75;3.50;;;;;;;;;;5059159;28;24488;-47
2022/06/22 04:45:40;;;;;;;3.67;3.37;;;;;;;;;;5063912;28;24497;-47
2022/06/22 04:48:11;;;;;;;3.70;3.40;;;;;;;;;;5065931;28;24437;-47
2022/06/22 04:50:37;;;;;;;3.70;3.40;;;;;;;;;;5081030;28;24479;-46
2022/06/22 04:53:03;;;;;;;4.35;3.10;;;;;;;;;;5088417;28;24471;-47
2022/06/22 04:55:29;;;;;;;3.50;3.20;;;;;;;;;;5063232;28;24435;-46
2022/06/22 04:57:56;;;;;;;3.97;3.58;;;;;;;;;;5073223;28;24426;-47
2022/06/22 05:00:23;;;;;;;4.30;3.97;;;;;;;;;;5059175;28;24522;-48
2022/06/22 05:02:52;;;;;;;3.50;3.20;;;;;;;;;;5077516;28;24421;-47
2022/06/22 05:05:25;;;;;;;4.40;3.30;;;;;;;;;;5066375;28;24441;-48
2022/06/22 05:07:53;;;;;;;3.10;2.90;;;;;;;;;;5068993;28;24963;-47
2022/06/22 05:10:28;;;;;;;4.20;3.08;;;;;;;;;;5067853;28;24445;-47
2022/06/22 05:12:55;;;;;;;3.50;3.20;;;;;;;;;;5056012;28;24410;-47
2022/06/22 05:15:23;;;;;;;3.80;3.30;;;;;;;;;;5060915;28;24416;-47
2022/06/22 05:17:48;;;;;;;3.63;3.33;;;;;;;;;;5062643;28;24427;-46
2022/06/22 05:20:20;;;;;;;3.15;2.95;;;;;;;;;;5059140;28;25038;-47
2022/06/22 05:22:47;;;;;;;3.40;3.10;;;;;;;;;;5081985;28;24831;-48
2022/06/22 05:25:13;;;;;;;3.30;3.10;;;;;;;;;;5068317;28;24518;-48
2022/06/22 05:27:46;;;;;;;3.60;3.30;;;;;;;;;;5065608;28;24509;-47
2022/06/22 05:30:11;;;;;;;3.50;2.97;;;;;;;;;;5066716;28;24462;-48
2022/06/22 05:32:42;;;;;;;3.40;3.10;;;;;;;;;;5065952;28;24512;-47
2022/06/22 05:35:15;;;;;;;4.03;3.20;;;;;;;;;;5075896;28;24479;-47
2022/06/22 05:37:45;;;;;;;3.25;2.92;;;;;;;;;;5079865;28;24422;-47
2022/06/22 05:40:11;;;;;;;3.38;2.80;;;;;;;;;;5081742;28;24636;-48
2022/06/22 05:42:36;;;;;;;3.43;3.13;;;;;;;;;;5075596;28;24679;-47
2022/06/22 05:45:02;;;;;;;2.83;2.63;;;;;;;;;;5062970;28;24489;-47
2022/06/22 05:47:29;;;;;;;3.90;2.83;;;;;;;;;;5061396;28;24838;-48
2022/06/22 05:50:21;;;;;;;5.15;3.00;;;;;;;;;;5068828;28;24437;-47
2022/06/22 05:52:49;;;;;;;3.37;2.80;;;;;;;;;;5074787;28;24476;-49
2022/06/22 05:55:21;;;;;;;2.95;2.75;;;;;;;;;;5083256;28;24449;-48
2022/06/22 05:57:53;;;;;;;2.40;2.30;;;;;;;;;;5067406;28;24522;-49
2022/06/22 06:00:27;;;;;;;2.72;2.50;;;;;;;;;;5078095;28;24422;-48
2022/06/22 06:02:58;;;;;;;2.80;2.50;;;;;;;;;;5068071;28;25006;-48
2022/06/22 06:05:27;;;;;;;2.58;2.38;;;;;;;;;;5071399;28;25060;-48
2022/06/22 06:07:54;;;;;;;3.00;2.70;;;;;;;;;;5077145;28;24529;-46
2022/06/22 06:10:21;;;;;;;2.40;2.30;;;;;;;;;;5082407;28;24455;-47
2022/06/22 06:13:10;;;;;;;3.00;2.60;;;;;;;;;;5070725;28;25084;-48
2022/06/22 06:15:38;;;;;;;3.30;3.00;;;;;;;;;;5067117;28;24521;-46
2022/06/22 06:18:04;;;;;;;2.97;2.77;;;;;;;;;;5070805;28;24430;-48
2022/06/22 06:20:33;;;;;;;4.70;2.95;;;;;;;;;;5073292;28;24484;-47
2022/06/22 06:23:10;;;;;;;2.90;2.50;;;;;;;;;;5072188;28;24687;-48
2022/06/22 06:28:26;;;;;;;3.42;2.90;;;;;;;;;;5058339;28;24475;-48
2022/06/22 06:30:54;;;;;;;3.75;3.00;;;;;;;;;;5070620;28;24823;-47
2022/06/22 06:33:23;;;;;;;2.60;2.40;;;;;;;;;;5074662;28;24449;-48
2022/06/22 06:35:51;;;;;;;3.30;2.70;;;;;;;;;;5065081;28;24466;-48
2022/06/22 06:38:36;;;;;;;2.90;2.60;;;;;;;;;;5073708;28;24495;-48
2022/06/22 06:41:17;;;;;;;3.05;2.70;;;;;;;;;;5063253;28;24423;-48
2022/06/22 06:43:50;;;;;;;4.15;2.38;;;;;;;;;;5054383;28;24430;-47
2022/06/22 06:46:24;;;;;;;2.80;2.35;;;;;;;;;;5062193;28;24469;-47
2022/06/22 06:48:58;;;;;;;2.50;2.30;;;;;;;;;;5067603;28;24418;-47
2022/06/22 06:51:23;;;;;;;3.05;2.40;;;;;;;;;;5069971;28;24434;-48
2022/06/22 06:53:56;;;;;;;2.30;2.10;;;;;;;;;;5062397;28;24423;-47
2022/06/22 06:56:24;;;;;;;3.90;2.30;;;;;;;;;;5075227;28;24471;-47
2022/06/22 06:58:51;;;;;;;5.10;2.72;;;;;;;;;;5083310;28;24503;-47
2022/06/22 07:01:27;;;;;;;2.75;2.40;;;;;;;;;;5083508;28;24422;-47
2022/06/22 07:03:58;;;;;;;2.78;2.50;;;;;;;;;;5075063;28;24539;-47
2022/06/22 07:06:24;;;;;;;3.28;2.38;;;;;;;;;;5061958;28;24508;-48
2022/06/22 07:08:56;;;;;;;2.70;2.50;;;;;;;;;;5065005;28;24815;-48
2022/06/22 07:11:32;;;;;;;2.22;2.13;;;;;;;;;;5073727;28;24429;-48
2022/06/22 07:14:01;;;;;;;2.80;2.50;;;;;;;;;;5063807;28;24987;-47
2022/06/22 07:16:26;;;;;;;3.40;2.55;;;;;;;;;;5064954;28;24516;-47
2022/06/22 07:19:04;;;;;;;2.50;2.30;;;;;;;;;;5066083;28;24466;-46
2022/06/22 07:21:34;;;;;;;2.80;2.50;;;;;;;;;;5060751;28;24426;-46
2022/06/22 07:24:03;;;;;;;2.60;2.40;;;;;;;;;;5068157;28;24534;-46
2022/06/22 07:26:44;;;;;;;2.80;2.50;;;;;;;;;;5066836;28;24399;-47
2022/06/22 07:29:18;;;;;;;2.83;2.50;;;;;;;;;;5066380;28;24835;-47
2022/06/22 07:32:03;;;;;;;2.90;2.65;;;;;;;;;;5066751;28;24441;-47
2022/06/22 07:34:36;;;;;;;2.47;2.28;;;;;;;;;;5066509;28;24395;-47
2022/06/22 07:37:08;;;;;;;2.22;2.13;;;;;;;;;;5066886;28;25044;-47
2022/06/22 07:39:37;;;;;;;2.40;2.20;;;;;;;;;;5066253;28;24430;-47
2022/06/22 07:42:02;;;;;;;2.22;2.13;;;;;;;;;;5066665;28;24445;-47
2022/06/22 07:44:31;;;;;;;2.57;2.37;;;;;;;;;;5066202;28;24419;-44
2022/06/22 07:47:06;;;;;;;2.60;2.40;;;;;;;;;;5066761;28;24469;-46
2022/06/22 07:49:33;;;;;;;2.55;2.35;;;;;;;;;;5052395;28;24434;-46
2022/06/22 07:52:01;;;;;;;2.20;2.10;;;;;;;;;;5043465;28;24442;-46
2022/06/22 07:54:46;;;;;;;2.55;2.15;;;;;;;;;;5045939;28;24414;-46
2022/06/22 07:57:32;;;;;;;3.47;2.28;;;;;;;;;;5061632;28;24477;-46
2022/06/22 08:00:00;;;;;;;2.30;2.20;;;;;;;;;;5066121;28;24423;-46
2022/06/22 08:02:29;;;;;;;2.50;2.30;;;;;;;;;;5066050;28;25105;-46
2022/06/22 08:04:57;;;;;;;2.40;2.20;;;;;;;;;;5060089;28;24510;-46
2022/06/22 08:07:24;;;;;;;2.40;2.30;;;;;;;;;;5055625;28;24407;-48
2022/06/22 08:09:55;;;;;;;2.83;2.40;;;;;;;;;;5066105;28;24991;-47
2022/06/22 08:12:24;;;;;;;2.88;2.60;;;;;;;;;;5047114;28;24533;-47
2022/06/22 08:14:52;;;;;;;2.80;2.50;;;;;;;;;;5061802;28;24460;-46
2022/06/22 08:17:26;;;;;;;3.05;2.40;;;;;;;;;;5046374;28;24792;-47
2022/06/22 08:19:51;;;;;;;2.60;2.40;;;;;;;;;;5046584;28;24474;-46
2022/06/22 08:22:16;;;;;;;2.60;2.40;;;;;;;;;;5045774;28;25029;-47
2022/06/22 08:24:44;;;;;;;2.70;2.50;;;;;;;;;;5047915;28;24387;-47
2022/06/22 08:27:15;;;;;;;2.97;2.50;;;;;;;;;;5057953;28;24789;-46
2022/06/22 08:29:40;;;;;;;3.10;2.83;;;;;;;;;;5069946;28;24426;-47
2022/06/22 08:32:09;;;;;;;3.85;2.90;;;;;;;;;;5069556;28;24457;-46
2022/06/22 08:34:38;;;;;;;3.10;2.90;;;;;;;;;;5069680;28;24400;-46
2022/06/22 08:37:06;;;;;;;2.70;2.50;;;;;;;;;;5069886;28;24389;-47
2022/06/22 08:39:31;;;;;;;3.20;2.90;;;;;;;;;;5069498;28;24497;-47
2022/06/22 08:42:05;;;;;;;3.35;2.75;;;;;;;;;;5069728;28;24517;-47
2022/06/22 08:44:52;;;;;;;3.00;2.78;;;;;;;;;;5069555;28;24431;-47
2022/06/22 08:47:25;;;;;;;2.90;2.70;;;;;;;;;;5069198;28;24826;-47
2022/06/22 08:49:50;;;;;;;6.47;3.08;;;;;;;;;;5069889;28;24419;-47
2022/06/22 08:52:30;;;;;;;3.53;2.58;;;;;;;;;;5069180;28;24406;-47
2022/06/22 08:55:05;;;;;;;3.20;3.00;;;;;;;;;;5069010;28;24503;-47
2022/06/22 08:57:49;;;;;;;3.17;2.97;;;;;;;;;;5069614;28;24391;-48
2022/06/22 09:00:38;;;;;;;3.17;2.92;;;;;;;;;;5069517;28;24391;-46
2022/06/22 09:03:22;;;;;;;3.00;2.80;;;;;;;;;;5068833;28;24418;-47
2022/06/22 09:05:53;;;;;;;3.45;2.90;;;;;;;;;;5060030;28;24426;-47
2022/06/22 09:08:37;;;;;;;3.10;2.80;;;;;;;;;;5069022;28;24434;-47
2022/06/22 09:11:21;;;;;;;3.30;3.10;;;;;;;;;;5068949;28;24463;-47
2022/06/22 09:13:54;;;;;;;3.42;3.13;;;;;;;;;;5069170;28;24704;-48
2022/06/22 09:16:32;;;;;;;4.70;2.70;;;;;;;;;;5069205;28;25209;-46
2022/06/22 09:19:00;;;;;;;3.50;3.20;;;;;;;;;;5068621;28;24937;-46
2022/06/22 09:21:50;;;;;;;3.40;3.10;;;;;;;;;;5068549;28;24422;-46
2022/06/22 09:24:21;;;;;;;3.97;3.20;;;;;;;;;;5068679;28;24386;-46
2022/06/22 09:27:06;;;;;;;3.40;3.10;;;;;;;;;;5068775;28;24414;-46
2022/06/22 09:29:40;;;;;;;2.80;2.60;;;;;;;;;;5068294;28;24509;-47
2022/06/22 09:32:26;;;;;;;3.10;2.90;;;;;;;;;;5068560;28;24425;-47
2022/06/22 09:35:06;;;;;;;2.83;2.63;;;;;;;;;;5068370;28;24429;-47
2022/06/22 09:37:50;;;;;;;2.90;2.70;;;;;;;;;;5068434;28;24431;-46
2022/06/22 09:40:15;;;;;;;2.95;2.80;;;;;;;;;;5068529;28;24417;-48
2022/06/22 09:42:46;;;;;;;2.90;2.70;;;;;;;;;;5068256;28;24574;-48
2022/06/22 09:45:20;;;;;;;2.80;2.60;;;;;;;;;;5068655;28;24468;-46
2022/06/22 09:47:53;;;;;;;2.80;2.60;;;;;;;;;;5068233;28;25229;-46
2022/06/22 09:50:31;;;;;;;3.17;2.90;;;;;;;;;;5050011;28;24427;-47
2022/06/22 09:52:59;;;;;;;2.70;2.50;;;;;;;;;;5067923;28;24456;-47
2022/06/22 09:58:21;;;;;;;5.75;3.20;;;;;;;;;;5068129;28;24509;-47
2022/06/22 10:00:57;;;;;;;3.08;2.50;;;;;;;;;;5068052;28;24387;-47
2022/06/22 10:03:28;;;;;;;3.00;2.80;;;;;;;;;;5067972;28;24409;-46
2022/06/22 10:05:56;;;;;;;3.15;2.70;;;;;;;;;;5068166;28;24423;-46
2022/06/22 10:08:21;;;;;;;2.90;2.58;;;;;;;;;;5068101;28;24940;-47
2022/06/22 10:10:51;;;;;;;3.00;2.70;;;;;;;;;;5068018;28;25011;-47
2022/06/22 10:13:25;;;;;;;3.00;2.70;;;;;;;;;;5067967;28;24482;-47
2022/06/22 10:15:56;;;;;;;3.08;2.80;;;;;;;;;;5067987;28;24387;-47
2022/06/22 10:18:40;;;;;;;2.50;2.30;;;;;;;;;;5067387;28;24972;-47
2022/06/22 10:21:19;;;;;;;3.05;2.80;;;;;;;;;;5067541;28;24773;-47
2022/06/22 10:23:51;;;;;;;3.17;2.88;;;;;;;;;;5067091;28;24415;-47
2022/06/22 10:26:38;;;;;;;2.70;2.50;;;;;;;;;;5067609;28;24935;-48
2022/06/22 10:29:15;;;;;;;2.60;2.40;;;;;;;;;;5046541;28;24445;-47
2022/06/22 10:31:55;;;;;;;3.05;2.80;;;;;;;;;;5067559;28;24761;-47
2022/06/22 10:34:38;;;;;;;2.63;2.42;;;;;;;;;;5067716;28;24406;-47
2022/06/22 10:37:21;;;;;;;2.72;2.53;;;;;;;;;;5067322;28;24502;-47
2022/06/22 10:39:52;;;;;;;2.20;2.10;;;;;;;;;;5067525;28;24399;-46
2022/06/22 10:45:16;;;;;;;3.00;2.70;;;;;;;;;;5064752;28;24458;-47
2022/06/22 10:47:56;;;;;;;2.50;2.20;;;;;;;;;;5066749;28;24941;-48
2022/06/22 10:50:36;;;;;;;2.70;2.50;;;;;;;;;;5067213;28;24485;-47
2022/06/22 10:53:15;;;;;;;2.70;2.50;;;;;;;;;;5065833;28;24395;-47
2022/06/22 10:55:55;;;;;;;2.80;2.40;;;;;;;;;;5064372;28;24472;-48
2022/06/22 10:58:21;;;;;;;2.50;2.30;;;;;;;;;;5067168;28;24417;-47
2022/06/22 11:01:05;;;;;;;2.45;2.25;;;;;;;;;;5060218;28;24411;-47
2022/06/22 11:03:42;;;;;;;2.70;2.50;;;;;;;;;;5046787;28;24423;-46
2022/06/22 11:06:13;;;;;;;3.78;2.20;;;;;;;;;;5047168;28;24538;-47
2022/06/22 11:08:57;;;;;;;2.70;2.50;;;;;;;;;;5046937;28;24402;-48
2022/06/22 11:11:28;;;;;;;2.30;2.20;;;;;;;;;;5052231;28;24434;-47
2022/06/22 11:14:16;;;;;;;2.50;2.30;;;;;;;;;;5066554;28;24398;-47
2022/06/22 11:16:45;;;;;;;3.00;2.50;;;;;;;;;;5066903;28;24485;-47
2022/06/22 11:19:29;;;;;;;3.15;2.30;;;;;;;;;;5067218;28;24398;-47
2022/06/22 11:21:57;;;;;;;2.50;2.40;;;;;;;;;;5066920;28;24808;-47
2022/06/22 11:24:48;;;;;;;2.90;2.58;;;;;;;;;;5066018;28;25270;-51
2022/06/22 11:31:00;;;;;;;2.90;2.70;;;;;;;;;;5043996;28;24787;-51
2022/06/22 11:33:31;;;;;;;2.80;2.60;;;;;;;;;;5011815;28;24424;-46
2022/06/22 11:36:20;;;;;;;2.60;2.40;;;;;;;;;;5039023;28;24418;-47
2022/06/22 11:39:11;;;;;;;2.80;2.60;;;;;;;;;;5046423;28;24395;-46
2022/06/22 11:41:36;;;;;;;2.57;2.37;;;;;;;;;;5057234;28;24449;-51
2022/06/22 11:44:16;;;;;;;3.00;2.70;;;;;;;;;;5066404;28;24430;-46
2022/06/22 11:46:48;;;;;;;2.70;2.50;;;;;;;;;;5066499;28;24407;-47
2022/06/22 11:49:22;;;;;;;3.40;2.60;;;;;;;;;;5064348;28;24459;-45
2022/06/22 11:52:06;;;;;;;2.38;2.28;;;;;;;;;;5065621;28;24405;-47
2022/06/22 11:54:31;;;;;;;3.10;2.90;;;;;;;;;;5054019;28;24840;-46
2022/06/22 11:56:56;;;;;;;3.17;2.70;;;;;;;;;;5052528;28;24429;-47
2022/06/22 11:59:40;;;;;;;2.65;2.35;;;;;;;;;;5056747;28;24423;-46
2022/06/22 12:02:07;;;;;;;2.85;2.65;;;;;;;;;;5049844;28;24395;-46
2022/06/22 12:04:50;;;;;;;2.70;2.60;;;;;;;;;;5049618;28;24469;-47
2022/06/22 12:07:33;;;;;;;3.20;2.90;;;;;;;;;;5050463;28;24404;-47
2022/06/22 12:10:05;;;;;;;2.80;2.60;;;;;;;;;;5067574;28;24540;-47
2022/06/22 12:12:51;;;;;;;2.70;2.50;;;;;;;;;;5049598;28;24869;-46
2022/06/22 12:15:19;;;;;;;2.70;2.60;;;;;;;;;;5048819;28;24396;-47
2022/06/22 12:18:07;;;;;;;2.67;2.47;;;;;;;;;;5048651;28;24403;-46
2022/06/22 12:21:02;;;;;;;2.80;2.60;;;;;;;;;;5030066;28;24446;-47
2022/06/22 12:23:35;;;;;;;2.78;2.58;;;;;;;;;;5064189;28;24479;-47
2022/06/22 12:26:21;;;;;;;2.75;2.65;;;;;;;;;;5088662;28;24944;-46
2022/06/22 12:28:58;;;;;;;3.30;2.70;;;;;;;;;;5062722;28;24433;-47
2022/06/22 12:31:26;;;;;;;2.72;2.20;;;;;;;;;;5049424;28;24459;-47
2022/06/22 12:33:55;;;;;;;2.90;2.70;;;;;;;;;;5048493;28;24841;-47
2022/06/22 12:36:29;;;;;;;2.50;2.30;;;;;;;;;;5052100;28;24664;-47
2022/06/22 12:38:56;;;;;;;2.75;2.55;;;;;;;;;;5051973;28;24426;-46
2022/06/22 12:41:37;;;;;;;2.50;2.30;;;;;;;;;;5048257;28;24419;-47
2022/06/22 12:44:11;;;;;;;2.50;2.40;;;;;;;;;;5046947;28;24427;-47
2022/06/22 12:46:45;;;;;;;2.40;2.30;;;;;;;;;;5048835;28;24797;-47
2022/06/22 12:49:27;;;;;;;2.60;2.40;;;;;;;;;;5048077;28;24956;-48
2022/06/22 12:51:52;;;;;;;2.50;2.22;;;;;;;;;;5050463;28;24434;-48
2022/06/22 12:54:20;;;;;;;2.92;2.72;;;;;;;;;;5065483;28;24411;-47
2022/06/22 12:57:11;;;;;;;2.60;2.50;;;;;;;;;;5066504;28;24393;-46
2022/06/22 12:59:49;;;;;;;3.00;2.50;;;;;;;;;;5045345;28;24414;-47
2022/06/22 13:02:16;;;;;;;2.33;2.22;;;;;;;;;;5047600;28;24411;-47
2022/06/22 13:04:42;;;;;;;2.60;2.40;;;;;;;;;;5047377;28;24426;-46
2022/06/22 13:07:10;;;;;;;2.80;2.60;;;;;;;;;;5048719;28;24485;-47
2022/06/22 13:09:35;;;;;;;2.50;2.30;;;;;;;;;;5054394;28;24506;-47
2022/06/22 13:12:02;;;;;;;2.70;2.50;;;;;;;;;;5061281;28;24511;-47
2022/06/22 13:14:36;;;;;;;2.80;2.30;;;;;;;;;;5049649;28;25435;-47
2022/06/22 13:17:08;;;;;;;2.80;2.60;;;;;;;;;;5061203;28;24423;-48
2022/06/22 13:19:51;;;;;;;2.40;2.30;;;;;;;;;;5049117;28;24399;-47
2022/06/22 13:22:39;;;;;;;2.60;2.50;;;;;;;;;;5048306;28;24420;-46
2022/06/22 13:25:13;;;;;;;2.65;2.55;;;;;;;;;;5044333;28;25036;-47
2022/06/22 13:27:52;;;;;;;2.88;2.70;;;;;;;;;;5048233;28;24387;-47
2022/06/22 13:30:22;;;;;;;2.50;2.40;;;;;;;;;;5048995;28;24433;-47
2022/06/22 13:32:55;;;;;;;2.60;2.50;;;;;;;;;;5048516;28;24510;-47
2022/06/22 13:35:28;;;;;;;2.75;2.53;;;;;;;;;;5049040;28;24391;-47
2022/06/22 13:38:09;;;;;;;3.10;2.90;;;;;;;;;;5048469;28;25058;-47
2022/06/22 13:40:41;;;;;;;3.00;2.80;;;;;;;;;;5049182;28;24480;-47
2022/06/22 13:43:06;;;;;;;2.50;2.30;;;;;;;;;;5048467;28;24395;-48
2022/06/22 13:45:45;;;;;;;3.03;2.63;;;;;;;;;;5054380;28;24435;-48
2022/06/22 13:48:28;;;;;;;2.60;2.50;;;;;;;;;;5068162;28;24440;-48
2022/06/22 13:51:09;;;;;;;2.60;2.40;;;;;;;;;;5068480;28;24419;-48
2022/06/22 13:53:58;;;;;;;2.90;2.70;;;;;;;;;;5067219;28;24958;-47
2022/06/22 13:56:42;;;;;;;2.80;2.60;;;;;;;;;;5048620;28;24399;-47
2022/06/22 13:59:15;;;;;;;2.87;2.70;;;;;;;;;;5048126;28;24449;-46
2022/06/22 14:01:42;;;;;;;2.60;2.50;;;;;;;;;;5048596;28;24399;-47
2022/06/22 14:04:12;;;;;;;2.97;2.78;;;;;;;;;;5048054;28;25011;-46
2022/06/22 14:06:49;;;;;;;3.03;2.83;;;;;;;;;;5048197;28;24434;-47
2022/06/22 14:09:25;;;;;;;2.85;2.60;;;;;;;;;;5050897;28;24778;-47
2022/06/22 14:11:57;;;;;;;2.63;2.42;;;;;;;;;;5057484;28;24414;-47
2022/06/22 14:14:42;;;;;;;2.50;2.40;;;;;;;;;;5067702;28;25133;-48
2022/06/22 14:17:13;;;;;;;2.80;2.60;;;;;;;;;;5067965;28;24401;-47
2022/06/22 14:19:47;;;;;;;2.97;2.77;;;;;;;;;;5067524;28;24441;-47
2022/06/22 14:22:28;;;;;;;2.60;2.50;;;;;;;;;;5066930;28;24753;-46
2022/06/22 14:24:55;;;;;;;3.13;2.50;;;;;;;;;;5049549;28;24489;-46
2022/06/22 14:27:39;;;;;;;3.00;2.80;;;;;;;;;;5047539;28;24400;-46
2022/06/22 14:30:22;;;;;;;3.03;2.83;;;;;;;;;;5073753;28;24446;-47
2022/06/22 14:32:47;;;;;;;2.70;2.50;;;;;;;;;;5056710;28;24500;-47
2022/06/22 14:35:25;;;;;;;2.60;2.50;;;;;;;;;;5070975;28;24531;-47
2022/06/22 14:37:56;;;;;;;3.30;3.10;;;;;;;;;;5075386;28;24824;-47
2022/06/22 14:40:29;;;;;;;2.90;2.70;;;;;;;;;;5079629;28;24426;-47
2022/06/22 14:42:56;;;;;;;2.70;2.50;;;;;;;;;;5059817;28;24445;-47
2022/06/22 14:45:28;;;;;;;2.80;2.60;;;;;;;;;;5067157;28;24548;-47
2022/06/22 14:47:56;;;;;;;3.50;3.20;;;;;;;;;;5067599;28;24941;-47
2022/06/22 14:50:24;;;;;;;3.00;2.80;;;;;;;;;;5058380;28;24439;-47
2022/06/22 14:53:18;;;;;;;3.30;3.10;;;;;;;;;;5073356;28;24430;-47
2022/06/22 14:55:44;;;;;;;3.00;2.80;;;;;;;;;;5045914;28;24465;-46
2022/06/22 14:58:28;;;;;;;2.92;2.72;;;;;;;;;;5065439;28;24801;-47
2022/06/22 15:00:53;;;;;;;3.17;2.97;;;;;;;;;;5075533;28;24526;-47
2022/06/22 15:03:25;;;;;;;3.30;3.00;;;;;;;;;;5083943;28;24501;-47
2022/06/22 15:06:10;;;;;;;3.60;3.40;;;;;;;;;;5079464;28;24757;-47
2022/06/22 15:08:41;;;;;;;3.25;3.05;;;;;;;;;;5071276;28;24504;-46
2022/06/22 15:14:10;;;;;;;2.90;2.70;;;;;;;;;;5062833;28;24572;-47
2022/06/22 15:16:38;;;;;;;3.20;3.00;;;;;;;;;;5065586;28;24410;-47
2022/06/22 15:19:06;;;;;;;3.40;3.20;;;;;;;;;;5063311;28;24521;-47
2022/06/22 15:21:36;;;;;;;3.42;3.22;;;;;;;;;;5070792;28;24473;-47
2022/06/22 15:24:10;;;;;;;3.13;2.92;;;;;;;;;;5060614;28;24415;-47
2022/06/22 15:26:35;;;;;;;3.00;2.80;;;;;;;;;;5058053;28;25000;-46
2022/06/22 15:29:12;;;;;;;2.90;2.80;;;;;;;;;;5066649;28;24985;-47
2022/06/22 15:31:37;;;;;;;2.80;2.60;;;;;;;;;;5062893;28;24509;-46
2022/06/22 15:34:21;;;;;;;2.83;2.73;;;;;;;;;;5064579;28;24449;-47